메인 페이지
METAR-TAF:

METAR-TAF

공항 :

Hattiesburg-Laurel Regional Airport

Hattiesburg / 로럴, 미시시피, 미국

위도: 31-28N, 경도: 089-20W, 고도: 91m

현재 날씨관측

예보는 12분 전, 01:56시(UTC)에 발표되었습니다.
무풍
온도
기압 1019 hPa
시정: 16.1km
맑음

METAR: KPIB 250156Z AUTO 00000KT 10SM CLR A3008 RMK AO2 SLPNO FZRANO $

시각: 21:08 (02:08 UTC)

예보

예보는 2 시간 48분 전, 23:20시(UTC)에 발표되었습니다.
예보 대상 시간: 25일 00시부터 25일 24시까지 (UTC)
5kt
시정: 10km
고도 5000ft 상공 구름 조금
25일 1000시부터 (UTC)
kt
시정: 6.4km
고도 300ft 상공 구름 많음
박무
25일 1400시부터 (UTC)
6kt
시정: 10km
고도 2500ft 상공 구름 보통

TAF: KPIB 242320Z 2500/2524 17005KT P6SM FEW050 FM251000 00000KT 4SM BR BKN003 FM251400 18006KT P6SM SCT025

4,000개 이상의 공항 관측 자료 및 예보 (METAR 및 TAF 보고).

지도상에서 검색 가능한 기상관측소가 노란 점과 빨간 점으로 표시되어 있습니다.

기상관측소 명을 보려면 표시 위로 마우스를 이동하세요.

날씨 관측과 예보를 보려면 클릭하세요.

지도 변경 : 확대하려면 엑스 표시가 있는 녹색 버튼, 축소하려면 빼기 표시가 있는 녹색 버튼, 다음 페이지의 지도를 보려면 녹색 화살표를 클릭하세요.


METAR-TAF: